Time;durP1;ratioP1;P1;durP2;ratioP2;P2;SDS_P1;SDS_P2;PMS_P1;PMS_P2;Temp;Humidity;BMP_temperature;BMP_pressure;BME280_temperature;BME280_humidity;BME280_pressure;Samples;Min_cycle;Max_cycle;Signal;HPM_P1;HPM_P2
2022/02/04 00:21:26;;;;;;;11.18;7.60;;;;;;;-146.07;100.00;70291.31;10405991;28;20029;-74
2022/02/04 00:43:39;;;;;;;11.35;8.82;;;;;;;;;;10567315;27;20441;-74
2022/02/04 00:48:51;;;;;;;11.23;8.20;;;;;;;;;;10566147;28;20031;-73
2022/02/04 01:30:48;;;;;;;13.82;9.82;;;;;;;;;;10564893;28;20020;-73
2022/02/04 01:35:48;;;;;;;16.90;8.40;;;;;;;;;;10563368;28;20475;-74
2022/02/04 01:40:49;;;;;;;16.48;9.68;;;;;;;;;;10557474;28;20302;-73
2022/02/04 01:45:50;;;;;;;9.60;7.63;;;;;;;;;;10536554;28;20031;-75
2022/02/04 01:50:51;;;;;;;13.90;10.90;;;;;;;;;;10536701;28;20022;-73
2022/02/04 01:55:51;;;;;;;14.35;12.95;;;;;;;;;;10517908;28;20024;-72
2022/02/04 02:00:52;;;;;;;13.50;10.37;;;;;;;;;;10535443;28;20076;-72
2022/02/04 02:05:55;;;;;;;13.52;9.10;;;;;;;;;;10534183;28;20266;-72
2022/02/04 02:10:56;;;;;;;14.27;10.15;;;;;;;;;;10533860;28;20024;-74
2022/02/04 03:03:01;;;;;;;16.17;14.77;;;;;;;;;;10491532;28;20029;-73
2022/02/04 03:08:02;;;;;;;19.05;9.07;;;;;;;;;;10489900;28;20486;-74
2022/02/04 03:13:05;;;;;;;14.30;10.85;;;;;;;;;;10489600;28;20016;-74
2022/02/04 03:18:20;;;;;;;14.93;13.73;;;;;;;;;;10490022;28;20021;-74
2022/02/04 03:23:22;;;;;;;9.02;8.35;;;;;;;;;;10496097;28;20024;-74
2022/02/04 03:28:26;;;;;;;11.18;9.02;;;;;;;;;;10490547;28;20021;-74
2022/02/04 03:33:29;;;;;;;12.43;11.35;;;;;;;;;;10489298;28;20411;-74
2022/02/04 03:38:29;;;;;;;15.45;13.88;;;;;;;;;;10488682;28;20029;-75
2022/02/04 03:43:29;;;;;;;16.27;14.53;;;;;;;;;;10488432;28;20503;-74
2022/02/04 03:48:30;;;;;;;14.77;13.75;;;;;;;;;;10488381;28;20082;-73
2022/02/04 03:53:30;;;;;;;13.32;12.32;;;;;;;;;;10488426;28;20345;-73
2022/02/04 03:58:32;;;;;;;13.13;12.15;;;;;;;;;;10488018;28;20471;-75
2022/02/04 04:03:32;;;;;;;10.88;9.75;;;;;;;;;;10487682;28;20104;-73
2022/02/04 04:08:32;;;;;;;21.25;19.75;;;;;;;;;;10487494;28;20485;-74
2022/02/04 04:13:33;;;;;;;18.33;16.73;;;;;;;;;;10487674;28;20029;-74
2022/02/04 04:18:33;;;;;;;19.27;17.95;;;;;;;;;;10487361;28;20044;-73
2022/02/04 04:23:33;;;;;;;15.48;14.02;;;;;;;;;;10487259;28;20057;-74
2022/02/04 04:28:34;;;;;;;13.55;12.15;;;;;;;;;;10487185;28;20124;-73
2022/02/04 04:33:34;;;;;;;15.13;13.98;;;;;;;;;;10515583;28;20070;-75
2022/02/04 04:38:40;;;;;;;13.45;12.25;;;;;;;;;;10530662;28;20398;-77
2022/02/04 05:31:19;;;;;;;8.32;7.57;;;;;;;;;;10525626;28;20023;-74
2022/02/04 05:36:19;;;;;;;9.23;7.97;;;;;;;;;;10492725;28;20127;-74
2022/02/04 05:41:25;;;;;;;13.53;10.57;;;;;;;;;;10492574;28;20299;-76
2022/02/04 05:46:33;;;;;;;13.25;10.45;;;;;;;;;;10492423;28;20271;-74
2022/02/04 05:51:45;;;;;;;20.45;17.33;;;;;;;;;;10492544;28;20078;-74
2022/02/04 06:07:16;;;;;;;15.48;13.63;;;;;;;;;;10493173;28;20020;-76
2022/02/04 06:22:57;;;;;;;16.52;14.85;;;;;;;;;;10534447;28;20020;-74
2022/02/04 06:27:57;;;;;;;19.00;12.00;;;;;;;;;;10533016;28;20452;-74
2022/02/04 06:32:58;;;;;;;26.45;13.52;;;;;;;;;;10534353;28;20491;-75
2022/02/04 06:38:00;;;;;;;17.88;14.00;;;;;;;;;;10534266;28;20012;-73
2022/02/04 06:43:00;;;;;;;19.65;13.55;;;;;;;;;;10533337;28;20052;-74
2022/02/04 06:48:00;;;;;;;17.80;10.40;;;;;;;;;;10532312;28;20028;-75
2022/02/04 06:53:01;;;;;;;32.47;11.18;;;;;;;;;;10532281;28;20092;-75
2022/02/04 06:58:02;;;;;;;29.20;14.80;;;;;;;;;;10532612;28;20016;-73
2022/02/04 07:03:03;;;;;;;19.88;12.50;;;;;;;;;;10515542;28;20421;-73
2022/02/04 07:08:11;;;;;;;19.23;12.73;;;;;;;;;;10531663;28;20103;-76
2022/02/04 07:13:47;;;;;;;19.75;12.90;;;;;;;;;;10532852;28;20020;-74
2022/02/04 07:23:51;;;;;;;19.83;13.95;;;;;;;;;;10532782;28;20016;-74
2022/02/04 07:28:53;;;;;;;19.95;12.45;;;;;;;;;;10531044;28;20558;-74
2022/02/04 07:34:08;;;;;;;22.10;12.25;;;;;;;;;;10531870;28;20577;-73
2022/02/04 07:44:18;;;;;;;17.10;11.88;;;;;;;;;;10531045;28;20016;-75
2022/02/04 07:49:19;;;;;;;18.00;10.00;;;;;;;;;;10531390;28;20046;-74
2022/02/04 07:54:19;;;;;;;19.08;11.55;;;;;;;;;;10530336;28;20270;-74
2022/02/04 07:59:19;;;;;;;19.37;10.10;;;;;;;;;;10532222;28;20024;-74
2022/02/04 08:04:25;;;;;;;16.93;9.73;;;;;;;;;;10532923;28;20024;-75
2022/02/04 08:35:48;;;;;;;23.27;10.75;;;;;;;;;;10529488;28;20490;-75
2022/02/04 08:51:30;;;;;;;20.55;10.50;;;;;;;;;;10531121;28;20024;-75
2022/02/04 08:56:57;;;;;;;16.88;8.48;;;;;;;;;;10538468;28;20039;-74
2022/02/04 09:02:05;;;;;;;20.42;11.27;;;;;;;;;;10536936;28;20111;-73
2022/02/04 09:07:09;;;;;;;22.00;10.32;;;;;;;;;;10536106;28;20019;-73
2022/02/04 09:17:48;;;;;;;20.00;10.35;;;;;;;;;;10536832;28;20051;-74
2022/02/04 09:22:48;;;;;;;24.50;12.35;;;;;;;;;;10536804;28;20099;-73
2022/02/04 09:27:48;;;;;;;18.40;11.20;;;;;;;;;;10537174;28;20023;-73
2022/02/04 09:32:49;;;;;;;22.35;10.30;;;;;;;;;;10534881;28;20016;-75
2022/02/04 09:37:50;;;;;;;22.33;10.63;;;;;;;;;;10534815;28;20053;-74
2022/02/04 09:42:51;;;;;;;29.67;10.65;;;;;;;;;;10534676;28;20044;-74
2022/02/04 09:47:58;;;;;;;32.80;13.77;;;;;;;;;;10533814;28;20012;-74
2022/02/04 10:24:33;;;;;;;33.80;16.23;;;;;;;;;;10534591;28;20031;-75
2022/02/04 10:29:34;;;;;;;39.20;16.20;;;;;;;;;;10532684;28;20027;-74
2022/02/04 10:34:37;;;;;;;29.80;15.82;;;;;;;;;;10532561;28;20031;-74
2022/02/04 11:30:56;;;;;;;25.30;13.52;;;;;;;;;;10531945;28;20437;-74
2022/02/04 11:54:29;;;;;;;31.70;13.80;;;;;;;;;;10531598;28;20399;-74
2022/02/04 11:59:05;;;;;;;37.95;13.40;;;;;;;;;;10530536;28;20440;-74
2022/02/04 12:04:17;;;;;;;30.30;12.35;;;;;;;;;;10529680;28;20020;-74
2022/02/04 12:09:33;;;;;;;18.17;10.77;;;;;;;;;;10529251;28;20028;-75
2022/02/04 12:14:33;;;;;;;24.60;12.63;;;;;;;;;;10529343;28;20024;-73
2022/02/04 12:19:35;;;;;;;29.48;11.95;;;;;;;;;;10530504;28;20035;-74
2022/02/04 12:24:37;;;;;;;22.38;13.35;;;;;;;;;;10528655;28;20043;-75
2022/02/04 12:29:37;;;;;;;32.92;13.27;;;;;;;;;;10528695;28;20024;-74
2022/02/04 12:34:45;;;;;;;24.92;13.00;;;;;;;;;;10528966;28;20483;-75
2022/02/04 12:39:45;;;;;;;25.07;14.03;;;;;;;;;;10527633;28;20055;-74
2022/02/04 12:44:46;;;;;;;30.00;13.60;;;;;;;;;;10528951;28;20379;-73
2022/02/04 12:49:48;;;;;;;23.45;11.05;;;;;;;;;;10528173;28;20107;-73
2022/02/04 12:55:08;;;;;;;27.67;11.70;;;;;;;;;;10528812;28;20073;-74
2022/02/04 13:10:37;;;;;;;30.45;12.45;;;;;;;;;;10488390;28;20028;-73
2022/02/04 13:15:38;;;;;;;23.73;11.35;;;;;;;;;;10517021;28;20028;-74
2022/02/04 13:20:39;;;;;;;24.15;11.20;;;;;;;;;;10513043;28;20111;-72
2022/02/04 13:25:44;;;;;;;22.90;12.75;;;;;;;;;;10486573;28;20025;-74
2022/02/04 13:30:58;;;;;;;33.28;14.52;;;;;;;;;;10490632;28;20111;-74
2022/02/04 13:36:17;;;;;;;32.40;12.80;;;;;;;;;;10529551;28;20028;-75
2022/02/04 13:41:28;;;;;;;26.08;13.20;;;;;;;;;;10541255;28;20127;-74
2022/02/04 13:46:51;;;;;;;27.80;13.70;;;;;;;;;;10535928;28;20051;-74
2022/02/04 13:57:19;;;;;;;26.00;13.15;;;;;;;;;;10536278;28;20495;-74
2022/02/04 14:02:23;;;;;;;26.90;12.57;;;;;;;;;;10519432;28;20032;-73
2022/02/04 14:07:34;;;;;;;30.38;15.15;;;;;;;;;;10492477;28;20025;-75
2022/02/04 14:12:34;;;;;;;28.23;14.23;;;;;;;;;;10492008;28;20051;-74
2022/02/04 14:17:36;;;;;;;31.67;14.63;;;;;;;;;;10492170;28;20040;-74
2022/02/04 14:22:36;;;;;;;28.08;14.48;;;;;;;;;;10492050;28;20471;-73
2022/02/04 14:27:36;;;;;;;38.10;16.05;;;;;;;;;;10492793;28;20035;-76
2022/02/04 14:32:48;;;;;;;33.63;14.37;;;;;;;;;;10491403;28;20082;-73
2022/02/04 14:49:16;;;;;;;27.65;14.45;;;;;;;;;;10490488;28;20812;-74
2022/02/04 15:00:04;;;;;;;27.80;14.38;;;;;;;;;;10469806;28;20040;-74
2022/02/04 15:04:47;;;;;;;32.67;15.50;;;;;;;;;;10490757;28;20027;-71
2022/02/04 15:09:53;;;;;;;27.83;16.60;;;;;;;;;;10491105;28;20039;-75
2022/02/04 15:14:53;;;;;;;33.13;19.02;;;;;;;;;;10489670;28;20097;-75
2022/02/04 15:19:53;;;;;;;31.10;14.65;;;;;;;;;;10490121;28;20036;-74
2022/02/04 15:24:58;;;;;;;27.90;16.50;;;;;;;;;;10488764;28;20437;-76
2022/02/04 15:30:00;;;;;;;29.95;15.93;;;;;;;;;;10489271;28;20411;-73
2022/02/04 15:35:02;;;;;;;83.28;33.78;;;;;;;;;;10489081;28;20032;-74
2022/02/04 15:40:03;;;;;;;35.05;18.08;;;;;;;;;;10513097;28;20048;-74
2022/02/04 15:50:30;;;;;;;52.15;19.42;;;;;;;;;;10531768;28;20028;-73
2022/02/04 16:01:04;;;;;;;38.28;17.50;;;;;;;;;;10529333;28;19916;-74
2022/02/04 16:06:05;;;;;;;32.15;20.48;;;;;;;;;;10529127;28;20024;-75
2022/02/04 16:21:23;;;;;;;128.97;46.97;;;;;;;;;;10530154;28;20020;-73
2022/02/04 16:31:42;;;;;;;47.22;19.70;;;;;;;;;;10530085;28;20050;-74
2022/02/04 16:36:45;;;;;;;53.95;22.90;;;;;;;;;;10529665;28;20028;-74
2022/02/04 16:42:03;;;;;;;50.78;22.88;;;;;;;;;;10528253;28;20465;-75
2022/02/04 16:47:03;;;;;;;42.83;22.38;;;;;;;;;;10527974;28;20046;-75
2022/02/04 16:52:05;;;;;;;49.97;24.00;;;;;;;;;;10526922;28;20115;-74
2022/02/04 16:57:05;;;;;;;57.45;25.15;;;;;;;;;;10529161;28;20020;-75
2022/02/04 17:02:06;;;;;;;60.05;28.30;;;;;;;;;;10528457;28;20020;-73
2022/02/04 17:07:16;;;;;;;76.68;31.65;;;;;;;;;;10528992;28;20020;-74
2022/02/04 17:12:26;;;;;;;59.92;27.75;;;;;;;;;;10530450;28;20399;-75
2022/02/04 17:17:26;;;;;;;54.30;30.40;;;;;;;;;;10535999;28;20089;-74
2022/02/04 17:22:27;;;;;;;57.63;27.73;;;;;;;;;;10535853;28;20028;-74
2022/02/04 17:27:27;;;;;;;52.60;27.75;;;;;;;;;;10535125;28;20506;-74
2022/02/04 17:32:27;;;;;;;65.28;28.25;;;;;;;;;;10510384;28;20029;-75
2022/02/04 17:37:27;;;;;;;64.67;32.93;;;;;;;;;;10493804;28;20425;-75
2022/02/04 17:42:28;;;;;;;58.97;31.80;;;;;;;;;;10492715;28;20053;-75
2022/02/04 17:47:28;;;;;;;58.83;30.00;;;;;;;;;;10492711;28;20024;-74
2022/02/04 17:52:40;;;;;;;63.43;29.23;;;;;;;;;;10492327;28;20028;-75
2022/02/04 17:57:53;;;;;;;77.45;33.22;;;;;;;;;;10492098;28;20119;-75
2022/02/04 18:03:01;;;;;;;67.40;35.05;;;;;;;;;;10492090;28;20103;-75
2022/02/04 18:08:01;;;;;;;;;;;;;;;;;;10492069;28;20384;-74
2022/02/04 18:13:03;;;;;;;76.68;37.70;;;;;;;;;;10491734;28;19908;-75
2022/02/04 18:18:03;;;;;;;74.47;36.40;;;;;;;;;;10491968;28;20025;-76
2022/02/04 18:23:03;;;;;;;82.68;41.80;;;;;;;;;;10492243;28;20487;-74
2022/02/04 18:28:04;;;;;;;74.87;36.17;;;;;;;;;;10533009;28;20475;-76
2022/02/04 18:33:04;;;;;;;77.97;36.65;;;;;;;;;;10533016;28;20144;-75
2022/02/04 18:38:14;;;;;;;68.13;35.50;;;;;;;;;;10532653;28;20081;-74
2022/02/04 18:48:26;;;;;;;78.82;36.85;;;;;;;;;;10518397;28;20031;-74
2022/02/04 18:58:30;;;;;;;80.40;38.30;;;;;;;;;;10527534;28;20421;-76
2022/02/04 19:03:42;;;;;;;87.55;43.78;;;;;;;;;;10529758;28;20028;-74
2022/02/04 19:09:05;;;;;;;78.72;40.10;;;;;;;;;;10527970;28;20028;-75
2022/02/04 19:14:12;;;;;;;89.32;45.63;;;;;;;;;;10528149;28;20055;-77
2022/02/04 19:24:13;;;;;;;88.13;43.13;;;;;;;;;;10531208;28;20505;-78
2022/02/04 19:29:14;;;;;;;100.43;45.17;;;;;;;;;;10504047;28;20029;-79
2022/02/04 19:34:14;;;;;;;93.87;44.30;;;;;;;;;;10487592;28;20062;-75
2022/02/04 19:39:15;;;;;;;92.10;42.33;;;;;;;;;;10527614;28;20314;-74
2022/02/04 19:44:15;;;;;;;93.57;42.75;;;;;;;;;;10525848;28;20012;-73
2022/02/04 19:49:20;;;;;;;86.70;42.40;;;;;;;;;;10528394;28;20031;-78
2022/02/04 19:54:41;;;;;;;100.72;47.40;;;;;;;;;;10528917;28;20028;-75
2022/02/04 20:26:11;;;;;;;82.72;47.25;;;;;;;;;;10511479;28;20037;-76
2022/02/04 20:31:12;;;;;;;92.80;45.35;;;;;;;;;;10486680;28;20472;-75
2022/02/04 20:36:13;;;;;;;79.23;45.13;;;;;;;;;;10486141;28;20411;-77
2022/02/04 20:41:20;;;;;;;87.20;46.42;;;;;;;;;;10486245;28;20048;-76
2022/02/04 20:46:20;;;;;;;83.63;48.40;;;;;;;;;;10495309;28;20029;-75
2022/02/04 20:51:20;;;;;;;86.73;47.63;;;;;;;;;;10524573;28;20494;-79
2022/02/04 20:56:21;;;;;;;99.68;53.80;;;;;;;;;;10536178;28;20727;-75
2022/02/04 21:01:23;;;;;;;98.60;48.38;;;;;;;;;;10537372;28;20028;-73
2022/02/04 21:06:42;;;;;;;101.10;51.92;;;;;;;;;;10535789;28;20031;-74
2022/02/04 21:17:01;;;;;;;73.88;41.90;;;;;;;;;;10495290;28;20480;-74
2022/02/04 21:22:04;;;;;;;87.75;43.42;;;;;;;;;;10494442;28;20021;-79
2022/02/04 21:27:08;;;;;;;86.97;42.78;;;;;;;;;;10493735;28;20021;-78
2022/02/04 21:32:09;;;;;;;90.35;38.35;;;;;;;;;;10492279;28;20483;-76
2022/02/04 21:37:11;;;;;;;106.13;47.57;;;;;;;;;;10492895;28;20021;-74
2022/02/04 21:42:16;;;;;;;83.18;44.17;;;;;;;;;;10493050;28;20330;-78
2022/02/04 21:47:23;;;;;;;116.55;54.75;;;;;;;;;;10531305;28;20020;-79
2022/02/04 21:52:23;;;;;;;106.30;49.17;;;;;;;;;;10535402;28;20032;-78
2022/02/04 21:57:23;;;;;;;91.70;51.07;;;;;;;;;;10533534;28;20418;-75
2022/02/04 22:02:27;;;;;;;101.22;50.13;;;;;;;;;;10536011;28;20281;-77
2022/02/04 22:07:35;;;;;;;90.82;47.08;;;;;;;;;;10533830;28;20027;-75
2022/02/04 22:17:57;;;;;;;87.35;48.03;;;;;;;;;;10534826;28;20378;-72
2022/02/04 22:22:58;;;;;;;87.88;48.80;;;;;;;;;;10518654;28;20590;-75
2022/02/04 22:27:59;;;;;;;90.82;42.50;;;;;;;;;;10529113;28;20024;-74
2022/02/04 22:33:04;;;;;;;103.70;43.10;;;;;;;;;;10531791;28;20050;-74
2022/02/04 22:48:55;;;;;;;67.32;39.58;;;;;;;;;;10533485;28;20023;-75
2022/02/04 22:54:10;;;;;;;79.72;39.40;;;;;;;;;;10533560;28;20036;-74
2022/02/04 22:59:17;;;;;;;76.28;40.58;;;;;;;;;;10530858;28;20479;-75
2022/02/04 23:04:21;;;;;;;75.15;35.67;;;;;;;;;;10531768;28;20073;-78
2022/02/04 23:09:33;;;;;;;79.05;39.20;;;;;;;;;;10529249;28;20032;-73
2022/02/04 23:19:50;;;;;;;64.10;38.05;;;;;;;;;;10532207;28;20027;-73
2022/02/04 23:46:09;;;;;;;82.72;40.60;;;;;;;;;;10518506;28;20036;-74
2022/02/04 23:51:09;;;;;;;54.78;33.28;;;;;;;;;;10528322;28;20120;-74
2022/02/04 23:56:09;;;;;;;56.80;29.00;;;;;;;;;;10529137;28;20028;-79
